• Join FlightAware (Why Join?)
  • Login
  • US Flag 
12:11AM EST


 

Airport Tracker/Info


-or-


 

Live Flight TrackerFlight Track Log ✈ CHQ5018 ✈ 19-Jul-2013 ✈ KORD - KMLI

Flight Track Log - Related Links

Times and Time Zones

All times are in EDT time to prevent confusion due to time zone crossing. See the CHQ5018 flight status page for this flight to view local times or setup timezone preferences in your user account.

Time Position Orientation Groundspeed Altitude Reporting Facility
EDT Latitude Longitude Course Direction KTS MPH feet Rate Location/Type
04:41PM 41.9500 -87.9000 270° West 148 170 1,700  Level Chicago TRACON
04:42PM 41.9333 -87.9667 251° West 171 197 4,200 1,680 Climbing Chicago TRACON
04:43PM 41.9333 -88.0333 270° West 207 238 5,100 1,380 Climbing Chicago TRACON
04:44PM 41.9667 -88.3500 270° West  Level FlightAware Approximate
04:45PM 41.9667 -88.5000 270° West  Level FlightAware Approximate
04:45PM 41.9289 -88.1483 267° West 241 277 7,700  Level Chicago Center
04:46PM 41.9667 -88.6500 270° West  Level FlightAware Approximate
04:46PM 41.9244 -88.2433 266° West 257 296 9,700  Level Chicago Center
04:47PM 41.9667 -88.8000 270° West  Level FlightAware Approximate
04:47PM 41.9156 -88.3686 265° West 283 326 11,200  Level Chicago Center
04:48PM 41.9083 -88.4897 265° West 320 368 12,000 360 Climbing Chicago Center
04:49PM 41.9008 -88.6172 266° West 343 395 12,000  Level Chicago Center
04:50PM 41.8675 -88.7450 251° West 362 417 12,000  Level Chicago Center
04:51PM 41.8319 -88.8950 252° West 357 411 12,000  Level Chicago Center
04:52PM 41.8022 -89.0225 253° West 362 417 12,000  Level Chicago Center
04:53PM 41.7736 -89.1494 253° West 359 413 12,000  Level Chicago Center
04:54PM 41.7436 -89.2769 253° West 363 418 12,000  Level Chicago Center
04:55PM 41.7144 -89.4050 253° West 363 418 12,000  Level Chicago Center
04:56PM 41.6800 -89.5514 253° West 363 418 12,000  Level Chicago Center
04:57PM 41.6497 -89.6814 253° West 367 422 12,000 -480 Level Chicago Center
04:58PM 41.6203 -89.8092 253° West 364 419 11,100 -540 Descending Chicago Center
04:59PM 41.5897 -89.9311 252° West 351 404 11,000 -480 Descending Chicago Center
05:00PM 41.5533 -90.0678 250° West 328 377 10,200 -1,500 Descending Chicago Center
05:01PM 41.5236 -90.1533 245° Southwest 264 304 8,000 -2,160 Descending Chicago Center
05:02PM 41.4933 -90.2414 245° Southwest 261 300 5,700 -2,220 Descending Chicago Center